sensor_id;sensor_type;location;lat;lon;timestamp;temperature;humidity
13328;DHT22;6733;51.044;3.746;2023-05-07T00:00:47;17.60;99.90
13328;DHT22;6733;51.044;3.746;2023-05-07T00:03:14;17.50;99.90
13328;DHT22;6733;51.044;3.746;2023-05-07T00:05:40;17.50;99.90
13328;DHT22;6733;51.044;3.746;2023-05-07T00:08:07;17.50;99.90
13328;DHT22;6733;51.044;3.746;2023-05-07T00:10:33;17.50;99.90
13328;DHT22;6733;51.044;3.746;2023-05-07T00:12:59;17.50;99.90
13328;DHT22;6733;51.044;3.746;2023-05-07T00:15:26;17.50;99.90
13328;DHT22;6733;51.044;3.746;2023-05-07T00:17:53;17.50;99.90
13328;DHT22;6733;51.044;3.746;2023-05-07T00:20:19;17.40;99.90
13328;DHT22;6733;51.044;3.746;2023-05-07T00:22:45;17.50;99.90
13328;DHT22;6733;51.044;3.746;2023-05-07T00:25:11;17.50;99.90
13328;DHT22;6733;51.044;3.746;2023-05-07T00:27:38;17.40;99.90
13328;DHT22;6733;51.044;3.746;2023-05-07T00:30:04;17.40;99.90
13328;DHT22;6733;51.044;3.746;2023-05-07T00:32:31;17.40;99.90
13328;DHT22;6733;51.044;3.746;2023-05-07T00:34:57;17.40;99.90
13328;DHT22;6733;51.044;3.746;2023-05-07T00:37:23;17.30;99.90
13328;DHT22;6733;51.044;3.746;2023-05-07T00:39:49;17.40;99.90
13328;DHT22;6733;51.044;3.746;2023-05-07T00:42:16;17.40;99.90
13328;DHT22;6733;51.044;3.746;2023-05-07T00:44:42;17.40;99.90
13328;DHT22;6733;51.044;3.746;2023-05-07T00:47:08;17.30;99.90
13328;DHT22;6733;51.044;3.746;2023-05-07T00:49:39;17.30;99.90
13328;DHT22;6733;51.044;3.746;2023-05-07T00:52:07;17.30;99.90
13328;DHT22;6733;51.044;3.746;2023-05-07T00:54:35;17.30;99.90
13328;DHT22;6733;51.044;3.746;2023-05-07T00:57:03;17.30;99.90
13328;DHT22;6733;51.044;3.746;2023-05-07T00:59:33;17.30;99.90
13328;DHT22;6733;51.044;3.746;2023-05-07T01:01:59;17.30;99.90
13328;DHT22;6733;51.044;3.746;2023-05-07T01:04:26;17.30;99.90
13328;DHT22;6733;51.044;3.746;2023-05-07T01:06:54;17.30;99.90
13328;DHT22;6733;51.044;3.746;2023-05-07T01:09:23;17.20;99.90
13328;DHT22;6733;51.044;3.746;2023-05-07T01:11:50;17.20;99.90
13328;DHT22;6733;51.044;3.746;2023-05-07T01:14:17;17.20;99.90
13328;DHT22;6733;51.044;3.746;2023-05-07T01:16:44;17.20;99.90
13328;DHT22;6733;51.044;3.746;2023-05-07T01:19:11;17.10;99.90
13328;DHT22;6733;51.044;3.746;2023-05-07T01:21:47;17.10;99.90
13328;DHT22;6733;51.044;3.746;2023-05-07T01:24:14;17.10;99.90
13328;DHT22;6733;51.044;3.746;2023-05-07T01:26:41;17.00;99.90
13328;DHT22;6733;51.044;3.746;2023-05-07T01:29:07;17.00;99.90
13328;DHT22;6733;51.044;3.746;2023-05-07T01:31:34;17.00;99.90
13328;DHT22;6733;51.044;3.746;2023-05-07T01:34:03;16.90;99.90
13328;DHT22;6733;51.044;3.746;2023-05-07T01:36:31;16.90;99.90
13328;DHT22;6733;51.044;3.746;2023-05-07T01:38:59;16.90;99.90
13328;DHT22;6733;51.044;3.746;2023-05-07T01:41:25;16.90;99.90
13328;DHT22;6733;51.044;3.746;2023-05-07T01:43:52;16.80;99.90
13328;DHT22;6733;51.044;3.746;2023-05-07T01:46:19;16.80;99.90
13328;DHT22;6733;51.044;3.746;2023-05-07T01:48:46;16.80;99.90
13328;DHT22;6733;51.044;3.746;2023-05-07T01:51:12;16.80;99.90
13328;DHT22;6733;51.044;3.746;2023-05-07T01:53:39;16.80;99.90
13328;DHT22;6733;51.044;3.746;2023-05-07T01:56:07;16.80;99.90
13328;DHT22;6733;51.044;3.746;2023-05-07T01:58:33;16.70;99.90
13328;DHT22;6733;51.044;3.746;2023-05-07T02:01:00;16.70;99.90
13328;DHT22;6733;51.044;3.746;2023-05-07T02:03:26;16.70;99.90
13328;DHT22;6733;51.044;3.746;2023-05-07T02:05:52;16.70;99.90
13328;DHT22;6733;51.044;3.746;2023-05-07T02:08:18;16.70;99.90
13328;DHT22;6733;51.044;3.746;2023-05-07T02:10:44;16.70;99.90
13328;DHT22;6733;51.044;3.746;2023-05-07T02:13:10;16.60;99.90
13328;DHT22;6733;51.044;3.746;2023-05-07T02:15:36;16.60;99.90
13328;DHT22;6733;51.044;3.746;2023-05-07T02:18:05;16.60;99.90
13328;DHT22;6733;51.044;3.746;2023-05-07T02:20:35;16.60;99.90
13328;DHT22;6733;51.044;3.746;2023-05-07T02:23:01;16.60;99.90
13328;DHT22;6733;51.044;3.746;2023-05-07T02:25:28;16.60;99.90
13328;DHT22;6733;51.044;3.746;2023-05-07T02:27:55;16.50;99.90
13328;DHT22;6733;51.044;3.746;2023-05-07T02:30:21;16.50;99.90
13328;DHT22;6733;51.044;3.746;2023-05-07T02:32:47;16.50;99.90
13328;DHT22;6733;51.044;3.746;2023-05-07T02:35:38;16.50;99.90
13328;DHT22;6733;51.044;3.746;2023-05-07T02:38:29;16.50;99.90
13328;DHT22;6733;51.044;3.746;2023-05-07T02:41:20;16.50;99.90
13328;DHT22;6733;51.044;3.746;2023-05-07T02:44:11;16.40;99.90
13328;DHT22;6733;51.044;3.746;2023-05-07T02:47:02;16.40;99.90
13328;DHT22;6733;51.044;3.746;2023-05-07T02:49:56;16.40;99.90
13328;DHT22;6733;51.044;3.746;2023-05-07T02:52:47;16.40;99.90
13328;DHT22;6733;51.044;3.746;2023-05-07T02:55:13;16.40;99.90
13328;DHT22;6733;51.044;3.746;2023-05-07T02:57:40;16.40;99.90
13328;DHT22;6733;51.044;3.746;2023-05-07T03:00:17;16.40;99.90
13328;DHT22;6733;51.044;3.746;2023-05-07T03:02:44;16.40;99.90
13328;DHT22;6733;51.044;3.746;2023-05-07T03:05:13;16.40;99.90
13328;DHT22;6733;51.044;3.746;2023-05-07T03:07:45;16.40;99.90
13328;DHT22;6733;51.044;3.746;2023-05-07T03:10:13;16.40;99.90
13328;DHT22;6733;51.044;3.746;2023-05-07T03:12:39;16.40;99.90
13328;DHT22;6733;51.044;3.746;2023-05-07T03:15:06;16.40;99.90
13328;DHT22;6733;51.044;3.746;2023-05-07T03:17:32;16.40;99.90
13328;DHT22;6733;51.044;3.746;2023-05-07T03:19:58;16.40;99.90
13328;DHT22;6733;51.044;3.746;2023-05-07T03:22:24;16.40;99.90
13328;DHT22;6733;51.044;3.746;2023-05-07T03:24:51;16.40;99.90
13328;DHT22;6733;51.044;3.746;2023-05-07T03:27:17;16.40;99.90
13328;DHT22;6733;51.044;3.746;2023-05-07T03:29:43;16.40;99.90
13328;DHT22;6733;51.044;3.746;2023-05-07T03:32:09;16.40;99.90
13328;DHT22;6733;51.044;3.746;2023-05-07T03:34:35;16.40;99.90
13328;DHT22;6733;51.044;3.746;2023-05-07T03:37:02;16.50;99.90
13328;DHT22;6733;51.044;3.746;2023-05-07T03:39:28;16.50;99.90
13328;DHT22;6733;51.044;3.746;2023-05-07T03:41:54;16.50;99.90
13328;DHT22;6733;51.044;3.746;2023-05-07T03:44:20;16.50;99.90
13328;DHT22;6733;51.044;3.746;2023-05-07T03:46:46;16.50;99.90
13328;DHT22;6733;51.044;3.746;2023-05-07T03:49:12;16.50;99.90
13328;DHT22;6733;51.044;3.746;2023-05-07T03:51:39;16.50;99.90
13328;DHT22;6733;51.044;3.746;2023-05-07T03:54:05;16.50;99.90
13328;DHT22;6733;51.044;3.746;2023-05-07T03:56:31;16.50;99.90
13328;DHT22;6733;51.044;3.746;2023-05-07T03:58:57;16.50;99.90
13328;DHT22;6733;51.044;3.746;2023-05-07T04:01:23;16.50;99.90
13328;DHT22;6733;51.044;3.746;2023-05-07T04:03:50;16.60;99.90
13328;DHT22;6733;51.044;3.746;2023-05-07T04:06:16;16.60;99.90
13328;DHT22;6733;51.044;3.746;2023-05-07T04:08:45;16.60;99.90
13328;DHT22;6733;51.044;3.746;2023-05-07T04:11:11;16.60;99.90
13328;DHT22;6733;51.044;3.746;2023-05-07T04:13:37;16.60;99.90
13328;DHT22;6733;51.044;3.746;2023-05-07T04:16:05;16.60;99.90
13328;DHT22;6733;51.044;3.746;2023-05-07T04:18:31;16.60;99.90
13328;DHT22;6733;51.044;3.746;2023-05-07T04:20:57;16.60;99.90
13328;DHT22;6733;51.044;3.746;2023-05-07T04:23:23;16.70;99.90
13328;DHT22;6733;51.044;3.746;2023-05-07T04:25:50;16.70;99.90
13328;DHT22;6733;51.044;3.746;2023-05-07T04:28:17;16.60;99.90
13328;DHT22;6733;51.044;3.746;2023-05-07T04:30:43;16.60;99.90
13328;DHT22;6733;51.044;3.746;2023-05-07T04:33:10;16.60;99.90
13328;DHT22;6733;51.044;3.746;2023-05-07T04:35:37;16.60;99.90
13328;DHT22;6733;51.044;3.746;2023-05-07T04:38:04;16.60;99.90
13328;DHT22;6733;51.044;3.746;2023-05-07T04:40:30;16.60;99.90
13328;DHT22;6733;51.044;3.746;2023-05-07T04:42:56;16.60;99.90
13328;DHT22;6733;51.044;3.746;2023-05-07T04:45:22;16.60;99.90
13328;DHT22;6733;51.044;3.746;2023-05-07T04:47:48;16.60;99.90
13328;DHT22;6733;51.044;3.746;2023-05-07T04:50:15;16.60;99.90
13328;DHT22;6733;51.044;3.746;2023-05-07T04:52:41;16.60;99.90
13328;DHT22;6733;51.044;3.746;2023-05-07T04:55:07;16.70;99.90
13328;DHT22;6733;51.044;3.746;2023-05-07T04:57:34;16.70;99.90
13328;DHT22;6733;51.044;3.746;2023-05-07T05:00:00;16.70;99.90
13328;DHT22;6733;51.044;3.746;2023-05-07T05:02:26;16.70;99.90
13328;DHT22;6733;51.044;3.746;2023-05-07T05:04:52;16.70;99.90
13328;DHT22;6733;51.044;3.746;2023-05-07T05:07:18;16.70;99.90
13328;DHT22;6733;51.044;3.746;2023-05-07T05:09:44;16.70;99.90
13328;DHT22;6733;51.044;3.746;2023-05-07T05:12:11;16.80;99.90
13328;DHT22;6733;51.044;3.746;2023-05-07T05:14:37;16.80;99.90
13328;DHT22;6733;51.044;3.746;2023-05-07T05:17:03;16.80;99.90
13328;DHT22;6733;51.044;3.746;2023-05-07T05:19:29;16.80;99.90
13328;DHT22;6733;51.044;3.746;2023-05-07T05:21:55;16.80;99.90
13328;DHT22;6733;51.044;3.746;2023-05-07T05:24:21;16.80;99.90
13328;DHT22;6733;51.044;3.746;2023-05-07T05:26:48;16.80;99.90
13328;DHT22;6733;51.044;3.746;2023-05-07T05:29:14;16.90;99.90
13328;DHT22;6733;51.044;3.746;2023-05-07T05:31:40;16.90;99.90
13328;DHT22;6733;51.044;3.746;2023-05-07T05:34:07;16.90;99.90
13328;DHT22;6733;51.044;3.746;2023-05-07T05:36:33;16.90;99.90
13328;DHT22;6733;51.044;3.746;2023-05-07T05:38:59;16.90;99.90
13328;DHT22;6733;51.044;3.746;2023-05-07T05:41:25;16.90;99.90
13328;DHT22;6733;51.044;3.746;2023-05-07T05:43:52;16.90;99.90
13328;DHT22;6733;51.044;3.746;2023-05-07T05:46:18;16.90;99.90
13328;DHT22;6733;51.044;3.746;2023-05-07T05:48:44;16.90;99.90
13328;DHT22;6733;51.044;3.746;2023-05-07T05:51:10;17.00;99.90
13328;DHT22;6733;51.044;3.746;2023-05-07T05:53:36;17.00;99.90
13328;DHT22;6733;51.044;3.746;2023-05-07T05:56:03;16.90;99.90
13328;DHT22;6733;51.044;3.746;2023-05-07T05:58:29;16.80;99.90
13328;DHT22;6733;51.044;3.746;2023-05-07T06:00:55;16.70;99.90
13328;DHT22;6733;51.044;3.746;2023-05-07T06:03:22;16.70;99.90
13328;DHT22;6733;51.044;3.746;2023-05-07T06:05:48;16.70;99.90
13328;DHT22;6733;51.044;3.746;2023-05-07T06:08:14;16.70;99.90
13328;DHT22;6733;51.044;3.746;2023-05-07T06:10:41;16.70;99.90
13328;DHT22;6733;51.044;3.746;2023-05-07T06:13:07;16.80;99.90
13328;DHT22;6733;51.044;3.746;2023-05-07T06:15:33;16.80;99.90
13328;DHT22;6733;51.044;3.746;2023-05-07T06:18:00;16.80;99.90
13328;DHT22;6733;51.044;3.746;2023-05-07T06:20:26;16.80;99.90
13328;DHT22;6733;51.044;3.746;2023-05-07T06:22:52;16.80;99.90
13328;DHT22;6733;51.044;3.746;2023-05-07T06:25:18;16.80;99.90
13328;DHT22;6733;51.044;3.746;2023-05-07T06:27:44;16.80;99.90
13328;DHT22;6733;51.044;3.746;2023-05-07T06:30:11;16.80;99.90
13328;DHT22;6733;51.044;3.746;2023-05-07T06:32:39;16.80;99.90
13328;DHT22;6733;51.044;3.746;2023-05-07T06:35:06;16.80;99.90
13328;DHT22;6733;51.044;3.746;2023-05-07T06:37:32;16.80;99.90
13328;DHT22;6733;51.044;3.746;2023-05-07T06:39:58;16.80;99.90
13328;DHT22;6733;51.044;3.746;2023-05-07T06:42:25;16.90;99.90
13328;DHT22;6733;51.044;3.746;2023-05-07T06:44:51;16.90;99.90
13328;DHT22;6733;51.044;3.746;2023-05-07T06:47:18;17.00;99.90
13328;DHT22;6733;51.044;3.746;2023-05-07T06:49:44;17.00;99.90
13328;DHT22;6733;51.044;3.746;2023-05-07T06:52:10;17.10;99.90
13328;DHT22;6733;51.044;3.746;2023-05-07T06:54:36;17.10;99.90
13328;DHT22;6733;51.044;3.746;2023-05-07T06:57:03;17.10;99.90
13328;DHT22;6733;51.044;3.746;2023-05-07T06:59:29;17.20;99.90
13328;DHT22;6733;51.044;3.746;2023-05-07T07:01:55;17.20;99.90
13328;DHT22;6733;51.044;3.746;2023-05-07T07:04:21;16.80;99.90
13328;DHT22;6733;51.044;3.746;2023-05-07T07:06:49;16.40;99.90
13328;DHT22;6733;51.044;3.746;2023-05-07T07:09:17;16.20;99.90
13328;DHT22;6733;51.044;3.746;2023-05-07T07:11:43;16.10;99.90
13328;DHT22;6733;51.044;3.746;2023-05-07T07:14:09;16.10;99.90
13328;DHT22;6733;51.044;3.746;2023-05-07T07:16:36;16.00;99.90
13328;DHT22;6733;51.044;3.746;2023-05-07T07:19:02;16.00;99.90
13328;DHT22;6733;51.044;3.746;2023-05-07T07:21:28;16.00;99.90
13328;DHT22;6733;51.044;3.746;2023-05-07T07:23:54;16.00;99.90
13328;DHT22;6733;51.044;3.746;2023-05-07T07:26:21;16.00;99.90
13328;DHT22;6733;51.044;3.746;2023-05-07T07:28:47;16.10;99.90
13328;DHT22;6733;51.044;3.746;2023-05-07T07:31:13;16.00;99.90
13328;DHT22;6733;51.044;3.746;2023-05-07T07:33:39;16.00;99.90
13328;DHT22;6733;51.044;3.746;2023-05-07T07:36:06;15.90;99.90
13328;DHT22;6733;51.044;3.746;2023-05-07T07:38:33;16.00;99.90
13328;DHT22;6733;51.044;3.746;2023-05-07T07:41:00;15.90;99.90
13328;DHT22;6733;51.044;3.746;2023-05-07T07:43:27;15.90;99.90
13328;DHT22;6733;51.044;3.746;2023-05-07T07:45:53;15.90;99.90
13328;DHT22;6733;51.044;3.746;2023-05-07T07:48:19;15.90;99.90
13328;DHT22;6733;51.044;3.746;2023-05-07T07:50:49;15.80;99.90
13328;DHT22;6733;51.044;3.746;2023-05-07T07:53:16;15.90;99.90
13328;DHT22;6733;51.044;3.746;2023-05-07T07:55:42;15.90;99.90
13328;DHT22;6733;51.044;3.746;2023-05-07T07:58:08;15.80;99.90
13328;DHT22;6733;51.044;3.746;2023-05-07T08:00:34;15.80;99.90
13328;DHT22;6733;51.044;3.746;2023-05-07T08:03:00;15.80;99.90
13328;DHT22;6733;51.044;3.746;2023-05-07T08:05:29;15.90;99.90
13328;DHT22;6733;51.044;3.746;2023-05-07T08:07:55;15.80;99.90
13328;DHT22;6733;51.044;3.746;2023-05-07T08:10:21;15.90;99.90
13328;DHT22;6733;51.044;3.746;2023-05-07T08:12:51;15.90;99.90
13328;DHT22;6733;51.044;3.746;2023-05-07T08:15:17;15.90;99.90
13328;DHT22;6733;51.044;3.746;2023-05-07T08:17:43;15.80;99.90
13328;DHT22;6733;51.044;3.746;2023-05-07T08:20:10;15.80;99.90
13328;DHT22;6733;51.044;3.746;2023-05-07T08:22:36;15.90;99.90
13328;DHT22;6733;51.044;3.746;2023-05-07T08:25:03;15.90;99.90
13328;DHT22;6733;51.044;3.746;2023-05-07T08:27:29;16.00;99.90
13328;DHT22;6733;51.044;3.746;2023-05-07T08:29:55;16.00;99.90
13328;DHT22;6733;51.044;3.746;2023-05-07T08:32:22;16.00;99.90
13328;DHT22;6733;51.044;3.746;2023-05-07T08:34:48;16.00;99.90
13328;DHT22;6733;51.044;3.746;2023-05-07T08:37:14;16.10;99.90
13328;DHT22;6733;51.044;3.746;2023-05-07T08:39:40;16.10;99.90
13328;DHT22;6733;51.044;3.746;2023-05-07T08:42:06;16.00;99.90
13328;DHT22;6733;51.044;3.746;2023-05-07T08:44:35;16.10;99.90
13328;DHT22;6733;51.044;3.746;2023-05-07T08:47:06;16.10;99.90
13328;DHT22;6733;51.044;3.746;2023-05-07T08:49:34;16.10;99.90
13328;DHT22;6733;51.044;3.746;2023-05-07T08:52:00;16.10;99.90
13328;DHT22;6733;51.044;3.746;2023-05-07T08:54:28;16.20;99.90
13328;DHT22;6733;51.044;3.746;2023-05-07T08:56:55;16.20;99.90
13328;DHT22;6733;51.044;3.746;2023-05-07T08:59:21;16.30;99.90
13328;DHT22;6733;51.044;3.746;2023-05-07T09:01:47;16.30;99.90
13328;DHT22;6733;51.044;3.746;2023-05-07T09:04:14;16.40;99.90
13328;DHT22;6733;51.044;3.746;2023-05-07T09:06:40;16.40;99.90
13328;DHT22;6733;51.044;3.746;2023-05-07T09:09:07;16.60;99.90
13328;DHT22;6733;51.044;3.746;2023-05-07T09:11:34;16.60;99.90
13328;DHT22;6733;51.044;3.746;2023-05-07T09:14:00;16.60;99.90
13328;DHT22;6733;51.044;3.746;2023-05-07T09:16:30;16.60;99.90
13328;DHT22;6733;51.044;3.746;2023-05-07T09:18:58;16.60;99.90
13328;DHT22;6733;51.044;3.746;2023-05-07T09:21:25;16.70;99.90
13328;DHT22;6733;51.044;3.746;2023-05-07T09:23:53;16.70;99.90
13328;DHT22;6733;51.044;3.746;2023-05-07T09:26:24;16.70;99.90
13328;DHT22;6733;51.044;3.746;2023-05-07T09:28:51;16.90;99.90
13328;DHT22;6733;51.044;3.746;2023-05-07T09:31:17;16.90;99.90
13328;DHT22;6733;51.044;3.746;2023-05-07T09:33:43;16.80;99.90
13328;DHT22;6733;51.044;3.746;2023-05-07T09:36:10;16.90;99.90
13328;DHT22;6733;51.044;3.746;2023-05-07T09:38:37;17.00;99.90
13328;DHT22;6733;51.044;3.746;2023-05-07T09:41:11;17.00;99.90
13328;DHT22;6733;51.044;3.746;2023-05-07T09:43:39;17.20;99.90
13328;DHT22;6733;51.044;3.746;2023-05-07T09:46:12;17.20;99.90
13328;DHT22;6733;51.044;3.746;2023-05-07T09:48:40;17.20;99.90
13328;DHT22;6733;51.044;3.746;2023-05-07T09:51:13;17.30;99.90
13328;DHT22;6733;51.044;3.746;2023-05-07T09:53:42;17.20;99.90
13328;DHT22;6733;51.044;3.746;2023-05-07T09:56:09;17.30;99.90
13328;DHT22;6733;51.044;3.746;2023-05-07T09:58:37;17.50;99.90
13328;DHT22;6733;51.044;3.746;2023-05-07T10:01:05;17.40;99.90
13328;DHT22;6733;51.044;3.746;2023-05-07T10:03:33;17.50;99.90
13328;DHT22;6733;51.044;3.746;2023-05-07T10:06:01;17.50;99.90
13328;DHT22;6733;51.044;3.746;2023-05-07T10:08:30;17.60;99.90
13328;DHT22;6733;51.044;3.746;2023-05-07T10:10:56;17.70;99.90
13328;DHT22;6733;51.044;3.746;2023-05-07T10:13:23;17.80;99.90
13328;DHT22;6733;51.044;3.746;2023-05-07T10:15:50;17.90;99.90
13328;DHT22;6733;51.044;3.746;2023-05-07T10:18:18;17.80;99.90
13328;DHT22;6733;51.044;3.746;2023-05-07T10:20:48;17.80;99.90
13328;DHT22;6733;51.044;3.746;2023-05-07T10:23:19;18.00;99.90
13328;DHT22;6733;51.044;3.746;2023-05-07T10:25:48;18.10;99.90
13328;DHT22;6733;51.044;3.746;2023-05-07T10:28:15;18.30;99.90
13328;DHT22;6733;51.044;3.746;2023-05-07T10:33:31;18.30;99.90
13328;DHT22;6733;51.044;3.746;2023-05-07T10:36:00;18.30;99.90
13328;DHT22;6733;51.044;3.746;2023-05-07T10:38:27;18.30;99.90
13328;DHT22;6733;51.044;3.746;2023-05-07T10:40:54;18.30;99.90
13328;DHT22;6733;51.044;3.746;2023-05-07T10:43:20;18.30;99.90
13328;DHT22;6733;51.044;3.746;2023-05-07T10:46:16;18.50;99.90
13328;DHT22;6733;51.044;3.746;2023-05-07T10:51:32;18.70;99.90
13328;DHT22;6733;51.044;3.746;2023-05-07T10:56:40;18.80;99.90
13328;DHT22;6733;51.044;3.746;2023-05-07T11:04:16;18.50;99.90
13328;DHT22;6733;51.044;3.746;2023-05-07T11:15:11;18.60;99.90
13328;DHT22;6733;51.044;3.746;2023-05-07T11:17:56;18.40;99.90
13328;DHT22;6733;51.044;3.746;2023-05-07T11:26:05;18.80;99.90
13328;DHT22;6733;51.044;3.746;2023-05-07T11:28:43;18.90;99.90
13328;DHT22;6733;51.044;3.746;2023-05-07T11:31:10;18.80;99.90
13328;DHT22;6733;51.044;3.746;2023-05-07T11:33:38;18.90;99.90
13328;DHT22;6733;51.044;3.746;2023-05-07T11:36:05;18.90;99.90
13328;DHT22;6733;51.044;3.746;2023-05-07T11:38:35;19.00;99.90
13328;DHT22;6733;51.044;3.746;2023-05-07T11:41:02;19.00;99.90
13328;DHT22;6733;51.044;3.746;2023-05-07T11:43:34;19.00;99.90
13328;DHT22;6733;51.044;3.746;2023-05-07T11:46:07;19.00;99.90
13328;DHT22;6733;51.044;3.746;2023-05-07T11:48:33;18.90;99.90
13328;DHT22;6733;51.044;3.746;2023-05-07T11:51:05;19.00;99.90
13328;DHT22;6733;51.044;3.746;2023-05-07T11:53:40;19.20;99.90
13328;DHT22;6733;51.044;3.746;2023-05-07T11:56:11;19.40;99.90
13328;DHT22;6733;51.044;3.746;2023-05-07T11:58:39;19.60;99.90
13328;DHT22;6733;51.044;3.746;2023-05-07T12:01:08;19.30;99.90
13328;DHT22;6733;51.044;3.746;2023-05-07T12:03:36;19.50;99.90
13328;DHT22;6733;51.044;3.746;2023-05-07T12:06:09;19.60;99.90
13328;DHT22;6733;51.044;3.746;2023-05-07T12:08:40;19.80;99.90
13328;DHT22;6733;51.044;3.746;2023-05-07T12:11:13;19.90;99.90
13328;DHT22;6733;51.044;3.746;2023-05-07T12:13:41;19.90;99.90
13328;DHT22;6733;51.044;3.746;2023-05-07T12:16:07;20.00;99.90
13328;DHT22;6733;51.044;3.746;2023-05-07T12:18:37;19.90;99.90
13328;DHT22;6733;51.044;3.746;2023-05-07T12:21:05;19.90;99.90
13328;DHT22;6733;51.044;3.746;2023-05-07T12:23:33;19.90;99.90
13328;DHT22;6733;51.044;3.746;2023-05-07T12:25:59;20.10;99.90
13328;DHT22;6733;51.044;3.746;2023-05-07T12:28:26;20.20;99.90
13328;DHT22;6733;51.044;3.746;2023-05-07T12:30:52;19.90;99.90
13328;DHT22;6733;51.044;3.746;2023-05-07T12:33:24;20.00;99.90
13328;DHT22;6733;51.044;3.746;2023-05-07T12:35:51;20.10;99.90
13328;DHT22;6733;51.044;3.746;2023-05-07T12:38:18;20.20;99.90
13328;DHT22;6733;51.044;3.746;2023-05-07T12:40:47;20.30;99.90
13328;DHT22;6733;51.044;3.746;2023-05-07T12:43:27;20.40;99.90
13328;DHT22;6733;51.044;3.746;2023-05-07T12:45:56;20.40;99.90
13328;DHT22;6733;51.044;3.746;2023-05-07T12:48:22;20.50;99.90
13328;DHT22;6733;51.044;3.746;2023-05-07T12:50:50;20.60;99.90
13328;DHT22;6733;51.044;3.746;2023-05-07T12:53:17;20.70;99.90
13328;DHT22;6733;51.044;3.746;2023-05-07T12:55:48;20.80;99.90
13328;DHT22;6733;51.044;3.746;2023-05-07T12:58:19;20.80;99.90
13328;DHT22;6733;51.044;3.746;2023-05-07T13:00:48;20.90;99.90
13328;DHT22;6733;51.044;3.746;2023-05-07T13:05:48;20.90;99.90
13328;DHT22;6733;51.044;3.746;2023-05-07T13:08:30;21.00;99.90
13328;DHT22;6733;51.044;3.746;2023-05-07T13:10:59;21.20;99.90
13328;DHT22;6733;51.044;3.746;2023-05-07T13:13:37;21.10;99.90
13328;DHT22;6733;51.044;3.746;2023-05-07T13:16:04;20.90;99.90
13328;DHT22;6733;51.044;3.746;2023-05-07T13:18:32;20.90;99.90
13328;DHT22;6733;51.044;3.746;2023-05-07T13:20:59;20.80;99.90
13328;DHT22;6733;51.044;3.746;2023-05-07T13:23:26;20.70;99.90
13328;DHT22;6733;51.044;3.746;2023-05-07T13:25:53;20.80;99.90
13328;DHT22;6733;51.044;3.746;2023-05-07T13:28:26;20.90;99.90
13328;DHT22;6733;51.044;3.746;2023-05-07T13:30:53;21.00;99.90
13328;DHT22;6733;51.044;3.746;2023-05-07T13:33:20;21.00;99.90
13328;DHT22;6733;51.044;3.746;2023-05-07T13:35:46;20.80;99.90
13328;DHT22;6733;51.044;3.746;2023-05-07T13:38:12;20.90;99.90
13328;DHT22;6733;51.044;3.746;2023-05-07T13:40:39;21.10;99.90
13328;DHT22;6733;51.044;3.746;2023-05-07T13:43:05;21.20;99.90
13328;DHT22;6733;51.044;3.746;2023-05-07T13:45:32;21.20;99.90
13328;DHT22;6733;51.044;3.746;2023-05-07T13:47:58;21.20;99.90
13328;DHT22;6733;51.044;3.746;2023-05-07T13:50:24;21.10;99.90
13328;DHT22;6733;51.044;3.746;2023-05-07T13:52:53;21.10;99.90
13328;DHT22;6733;51.044;3.746;2023-05-07T13:55:24;20.70;99.90
13328;DHT22;6733;51.044;3.746;2023-05-07T13:57:58;20.80;99.90
13328;DHT22;6733;51.044;3.746;2023-05-07T14:00:25;20.70;99.90
13328;DHT22;6733;51.044;3.746;2023-05-07T14:02:52;20.60;99.90
13328;DHT22;6733;51.044;3.746;2023-05-07T14:05:19;20.30;99.90
13328;DHT22;6733;51.044;3.746;2023-05-07T14:07:45;20.30;99.90
13328;DHT22;6733;51.044;3.746;2023-05-07T14:10:11;20.20;99.90
13328;DHT22;6733;51.044;3.746;2023-05-07T14:12:39;20.20;99.90
13328;DHT22;6733;51.044;3.746;2023-05-07T14:15:05;20.10;99.90
13328;DHT22;6733;51.044;3.746;2023-05-07T14:17:31;19.90;99.90
13328;DHT22;6733;51.044;3.746;2023-05-07T14:19:58;19.70;99.90
13328;DHT22;6733;51.044;3.746;2023-05-07T14:22:24;19.80;99.90
13328;DHT22;6733;51.044;3.746;2023-05-07T14:24:51;19.70;99.90
13328;DHT22;6733;51.044;3.746;2023-05-07T14:27:17;19.60;99.90
13328;DHT22;6733;51.044;3.746;2023-05-07T14:29:43;19.60;99.90
13328;DHT22;6733;51.044;3.746;2023-05-07T14:32:11;19.30;99.90
13328;DHT22;6733;51.044;3.746;2023-05-07T14:34:37;19.00;99.90
13328;DHT22;6733;51.044;3.746;2023-05-07T14:37:04;18.80;99.90
13328;DHT22;6733;51.044;3.746;2023-05-07T14:39:30;18.70;99.90
13328;DHT22;6733;51.044;3.746;2023-05-07T14:41:57;18.60;99.90
13328;DHT22;6733;51.044;3.746;2023-05-07T14:44:23;18.20;99.90
13328;DHT22;6733;51.044;3.746;2023-05-07T14:46:49;18.20;99.90
13328;DHT22;6733;51.044;3.746;2023-05-07T14:49:17;18.10;99.90
13328;DHT22;6733;51.044;3.746;2023-05-07T14:51:44;18.10;99.90
13328;DHT22;6733;51.044;3.746;2023-05-07T14:54:11;18.30;99.90
13328;DHT22;6733;51.044;3.746;2023-05-07T14:56:38;18.20;99.90
13328;DHT22;6733;51.044;3.746;2023-05-07T14:59:04;18.30;99.90
13328;DHT22;6733;51.044;3.746;2023-05-07T15:01:30;18.30;99.90
13328;DHT22;6733;51.044;3.746;2023-05-07T15:03:57;18.30;99.90
13328;DHT22;6733;51.044;3.746;2023-05-07T15:06:23;18.10;99.90
13328;DHT22;6733;51.044;3.746;2023-05-07T15:08:49;18.10;99.90
13328;DHT22;6733;51.044;3.746;2023-05-07T15:11:15;18.10;99.90
13328;DHT22;6733;51.044;3.746;2023-05-07T15:13:42;18.30;99.90
13328;DHT22;6733;51.044;3.746;2023-05-07T15:16:08;18.50;99.90
13328;DHT22;6733;51.044;3.746;2023-05-07T15:18:35;18.50;99.90
13328;DHT22;6733;51.044;3.746;2023-05-07T15:21:01;18.70;99.90
13328;DHT22;6733;51.044;3.746;2023-05-07T15:23:27;18.90;99.90
13328;DHT22;6733;51.044;3.746;2023-05-07T15:25:54;19.20;99.90
13328;DHT22;6733;51.044;3.746;2023-05-07T15:28:20;19.40;99.90
13328;DHT22;6733;51.044;3.746;2023-05-07T15:30:47;19.40;99.90
13328;DHT22;6733;51.044;3.746;2023-05-07T15:33:13;19.50;99.90
13328;DHT22;6733;51.044;3.746;2023-05-07T15:35:40;19.50;99.90
13328;DHT22;6733;51.044;3.746;2023-05-07T15:38:06;19.50;99.90
13328;DHT22;6733;51.044;3.746;2023-05-07T15:40:34;19.60;99.90
13328;DHT22;6733;51.044;3.746;2023-05-07T15:43:03;19.50;99.90
13328;DHT22;6733;51.044;3.746;2023-05-07T15:45:30;19.90;99.90
13328;DHT22;6733;51.044;3.746;2023-05-07T15:47:56;20.00;99.90
13328;DHT22;6733;51.044;3.746;2023-05-07T15:50:22;20.00;99.90
13328;DHT22;6733;51.044;3.746;2023-05-07T15:52:48;20.10;99.90
13328;DHT22;6733;51.044;3.746;2023-05-07T15:55:14;20.10;99.90
13328;DHT22;6733;51.044;3.746;2023-05-07T15:57:41;20.20;99.90
13328;DHT22;6733;51.044;3.746;2023-05-07T16:00:07;20.30;99.90
13328;DHT22;6733;51.044;3.746;2023-05-07T16:02:35;20.20;99.90
13328;DHT22;6733;51.044;3.746;2023-05-07T16:05:02;20.10;99.90
13328;DHT22;6733;51.044;3.746;2023-05-07T16:07:28;20.00;99.90
13328;DHT22;6733;51.044;3.746;2023-05-07T16:09:54;19.90;99.90
13328;DHT22;6733;51.044;3.746;2023-05-07T16:12:21;19.70;99.90
13328;DHT22;6733;51.044;3.746;2023-05-07T16:14:47;19.60;99.90
13328;DHT22;6733;51.044;3.746;2023-05-07T16:17:13;19.60;99.90